Time;durP1;ratioP1;P1;durP2;ratioP2;P2;SDS_P1;SDS_P2;PMS_P1;PMS_P2;Temp;Humidity;BMP_temperature;BMP_pressure;BME280_temperature;BME280_humidity;BME280_pressure;Samples;Min_cycle;Max_cycle;Signal;HPM_P1;HPM_P2
2021/12/07 00:00:03;;;;;;;15.77;2.40;;;;;;;3.29;100.00;100519.59;5057411;28;20053;-51
2021/12/07 00:02:32;;;;;;;18.77;2.92;;;;;;;3.27;100.00;100510.94;5056570;28;20057;-52
2021/12/07 00:05:01;;;;;;;23.65;4.63;;;;;;;3.25;100.00;100510.13;5056292;28;20057;-52
2021/12/07 00:07:29;;;;;;;23.92;4.00;;;;;;;3.31;100.00;100509.06;5057609;28;20052;-52
2021/12/07 00:09:57;;;;;;;19.42;3.75;;;;;;;3.26;100.00;100488.25;5056491;28;20052;-52
2021/12/07 00:12:34;;;;;;;13.32;3.72;;;;;;;3.25;100.00;100496.19;5056907;28;20064;-50
2021/12/07 00:15:03;;;;;;;14.60;2.90;;;;;;;3.19;100.00;100494.59;5056141;28;20088;-52
2021/12/07 00:17:32;;;;;;;15.85;3.10;;;;;;;3.13;100.00;100497.41;5056655;28;20083;-52
2021/12/07 00:20:01;;;;;;;10.85;4.00;;;;;;;3.13;100.00;100494.81;5056280;28;20057;-50
2021/12/07 00:22:30;;;;;;;13.88;2.90;;;;;;;3.06;100.00;100495.88;5056848;28;20404;-51
2021/12/07 00:24:58;;;;;;;12.65;2.60;;;;;;;3.04;100.00;100492.44;5055909;28;20068;-52
2021/12/07 00:27:28;;;;;;;26.92;3.20;;;;;;;3.08;100.00;100494.09;5056473;28;20063;-52
2021/12/07 00:29:56;;;;;;;17.50;2.47;;;;;;;3.12;100.00;100500.94;5056073;28;20061;-52
2021/12/07 00:32:28;;;;;;;16.10;3.13;;;;;;;3.15;100.00;100495.59;5055922;28;20057;-52
2021/12/07 00:35:15;;;;;;;14.95;2.03;;;;;;;3.07;100.00;100495.84;5056588;28;20053;-50
2021/12/07 00:37:48;;;;;;;13.38;2.13;;;;;;;3.08;100.00;100483.59;5056274;28;20060;-50
2021/12/07 00:40:18;;;;;;;19.83;2.20;;;;;;;3.02;100.00;100486.41;5056507;28;20053;-52
2021/12/07 00:42:48;;;;;;;18.55;2.67;;;;;;;3.01;100.00;100487.31;5056263;28;20060;-50
2021/12/07 00:45:20;;;;;;;14.52;2.67;;;;;;;3.13;100.00;100484.31;5056378;28;20053;-50
2021/12/07 00:47:48;;;;;;;;;;;;;;;3.14;100.00;100484.28;5055962;28;20056;-50
2021/12/07 00:50:18;;;;;;;9.57;2.05;;;;;;;3.23;100.00;100488.34;5055716;28;19928;-49
2021/12/07 00:52:46;;;;;;;12.45;1.98;;;;;;;3.25;100.00;100468.19;5055619;28;20509;-50
2021/12/07 00:55:18;;;;;;;19.58;2.92;;;;;;;3.27;100.00;100468.13;5056492;28;20071;-51
2021/12/07 00:57:51;;;;;;;18.88;2.67;;;;;;;3.25;100.00;100476.06;5055355;28;20098;-51
2021/12/07 01:00:21;;;;;;;25.70;3.65;;;;;;;3.23;100.00;100485.72;5056701;28;20053;-52
2021/12/07 01:02:49;;;;;;;18.63;2.25;;;;;;;3.24;100.00;100479.56;5055912;28;20500;-52
2021/12/07 01:05:22;;;;;;;14.40;3.13;;;;;;;3.27;100.00;100471.59;5055966;28;20103;-51
2021/12/07 01:08:10;;;;;;;12.40;3.35;;;;;;;3.22;100.00;100470.91;5056288;28;20064;-50
2021/12/07 01:24:43;;;;;;;22.05;2.30;;;;;;;3.10;100.00;100466.91;5054769;28;20063;-49
2021/12/07 01:27:15;;;;;;;10.52;2.80;;;;;;;3.09;100.00;100462.59;5054748;28;20057;-51
2021/12/07 01:29:48;;;;;;;14.43;2.10;;;;;;;3.16;100.00;100466.72;5054679;28;20527;-52
2021/12/07 01:32:36;;;;;;;10.65;2.88;;;;;;;3.08;100.00;100460.03;5054656;28;20067;-51
2021/12/07 01:38:19;;;;;;;18.00;2.15;;;;;;;3.22;100.00;100460.41;5029466;28;20057;-50
2021/12/07 01:41:00;;;;;;;20.00;2.38;;;;;;;3.27;100.00;100455.03;5055358;28;20057;-52
2021/12/07 01:57:55;;;;;;;15.80;1.95;;;;;;;3.49;100.00;100410.59;5055609;28;20062;-52
2021/12/07 02:00:26;;;;;;;13.43;2.40;;;;;;;3.56;100.00;100396.34;5054970;28;20052;-52
2021/12/07 02:02:56;;;;;;;10.43;2.17;;;;;;;3.45;100.00;100388.00;5054063;28;20053;-51
2021/12/07 02:05:24;;;;;;;17.25;2.10;;;;;;;3.32;100.00;100372.69;5054116;28;20057;-52
2021/12/07 02:07:53;;;;;;;21.60;3.28;;;;;;;3.16;100.00;100367.13;5054289;28;20057;-51
2021/12/07 02:10:25;;;;;;;20.17;3.45;;;;;;;3.22;100.00;100371.28;5054208;28;20423;-52
2021/12/07 02:13:01;;;;;;;14.85;3.80;;;;;;;3.18;100.00;100377.56;5054291;28;20057;-52
2021/12/07 02:15:29;;;;;;;12.50;2.40;;;;;;;3.18;100.00;100382.78;5053907;28;20586;-52
2021/12/07 02:17:59;;;;;;;13.05;1.70;;;;;;;3.17;100.00;100367.97;5055237;28;20057;-52
2021/12/07 02:20:30;;;;;;;20.13;2.20;;;;;;;3.12;100.00;100375.13;5054265;28;20060;-53
2021/12/07 02:23:00;;;;;;;9.18;2.35;;;;;;;3.01;100.00;100372.00;5053751;28;20057;-52
2021/12/07 02:25:28;;;;;;;10.95;1.80;;;;;;;3.13;100.00;100379.47;5053815;28;20064;-52
2021/12/07 02:27:56;;;;;;;19.33;2.95;;;;;;;3.10;100.00;100372.56;5054022;28;20061;-51
2021/12/07 02:30:26;;;;;;;16.75;2.13;;;;;;;3.09;100.00;100369.97;5054618;28;20053;-51
2021/12/07 02:32:55;;;;;;;9.23;2.15;;;;;;;3.12;100.00;100372.50;5054293;28;20420;-52
2021/12/07 02:35:26;;;;;;;13.10;2.88;;;;;;;3.12;100.00;100359.41;5054217;28;20541;-51
2021/12/07 02:37:57;;;;;;;11.02;1.95;;;;;;;3.08;100.00;100347.31;5054248;28;20092;-50
2021/12/07 02:40:26;;;;;;;16.05;3.15;;;;;;;3.14;100.00;100347.09;5054742;28;20071;-53
2021/12/07 02:42:54;;;;;;;16.10;3.15;;;;;;;3.16;100.00;100345.25;5053808;28;20060;-52
2021/12/07 02:45:23;;;;;;;13.98;1.67;;;;;;;3.19;100.00;100345.16;5053603;28;20056;-51
2021/12/07 02:47:51;;;;;;;19.52;2.60;;;;;;;3.21;100.00;100335.50;5054080;28;20069;-51
2021/12/07 02:50:20;;;;;;;18.75;2.33;;;;;;;3.21;100.00;100343.38;5054141;28;20057;-52
2021/12/07 02:52:49;;;;;;;18.52;1.85;;;;;;;3.14;100.00;100320.88;5053751;28;20068;-52
2021/12/07 02:55:17;;;;;;;12.95;2.05;;;;;;;3.20;100.00;100310.19;5056343;28;20061;-52
2021/12/07 02:57:47;;;;;;;17.52;1.98;;;;;;;3.10;100.00;100300.94;5058119;28;20059;-51
2021/12/07 03:00:20;;;;;;;16.75;2.00;;;;;;;3.04;100.00;100309.00;5058971;28;20056;-52
2021/12/07 03:02:55;;;;;;;12.48;2.03;;;;;;;3.02;100.00;100302.97;5058236;28;20416;-52
2021/12/07 03:05:36;;;;;;;19.90;2.08;;;;;;;3.13;100.00;100299.06;5058308;28;20090;-52
2021/12/07 03:08:26;;;;;;;17.55;2.97;;;;;;;3.17;100.00;100297.19;5057380;28;20538;-51
2021/12/07 03:27:29;;;;;;;18.85;3.03;;;;;;;3.42;100.00;100246.50;5058390;28;20090;-50
2021/12/07 03:29:59;;;;;;;16.15;3.17;;;;;;;3.46;100.00;100261.19;5057229;28;20053;-51
2021/12/07 03:32:27;;;;;;;9.18;2.35;;;;;;;3.49;100.00;100247.97;5057162;28;20512;-52
2021/12/07 03:34:55;;;;;;;12.48;2.47;;;;;;;3.48;100.00;100234.03;5058283;28;20053;-52
2021/12/07 03:37:24;;;;;;;20.00;3.30;;;;;;;3.50;100.00;100233.97;5057413;28;20052;-52
2021/12/07 03:39:52;;;;;;;14.02;2.15;;;;;;;3.72;100.00;100227.00;5057574;28;20053;-52
2021/12/07 03:42:20;;;;;;;14.20;2.70;;;;;;;3.74;100.00;100212.97;5056904;28;20072;-52
2021/12/07 03:44:48;;;;;;;9.23;2.42;;;;;;;3.74;100.00;100205.94;5058137;28;20064;-51
2021/12/07 03:47:18;;;;;;;26.15;3.25;;;;;;;3.77;100.00;100205.84;5057198;28;20527;-52
2021/12/07 03:49:46;;;;;;;21.30;2.90;;;;;;;3.83;100.00;100205.59;5057723;28;20057;-53
2021/12/07 03:52:14;;;;;;;19.15;3.95;;;;;;;3.85;100.00;100181.91;5056757;28;20068;-50
2021/12/07 03:54:43;;;;;;;16.73;3.08;;;;;;;3.96;100.00;100179.72;5056485;28;20053;-52
2021/12/07 03:57:11;;;;;;;20.00;3.38;;;;;;;3.93;100.00;100174.56;5057056;28;20057;-52
2021/12/07 03:59:39;;;;;;;17.23;2.75;;;;;;;3.95;100.00;100157.03;5057529;28;20053;-50
2021/12/07 04:02:08;;;;;;;15.73;3.13;;;;;;;3.90;100.00;100156.31;5056922;28;20416;-52
2021/12/07 04:04:38;;;;;;;18.60;2.70;;;;;;;3.82;100.00;100145.31;5057559;28;20083;-52
2021/12/07 04:07:07;;;;;;;15.75;2.83;;;;;;;3.78;100.00;100128.81;5056627;28;20057;-52
2021/12/07 04:09:35;;;;;;;24.52;3.45;;;;;;;3.79;100.00;100124.44;5057619;28;20092;-51
2021/12/07 04:12:03;;;;;;;14.85;2.75;;;;;;;3.77;100.00;100100.03;5056827;28;20411;-50
2021/12/07 04:14:32;;;;;;;13.77;2.45;;;;;;;3.87;100.00;100098.75;5056413;28;20397;-52
2021/12/07 04:17:00;;;;;;;13.23;2.60;;;;;;;3.85;100.00;100092.69;5056907;28;20057;-52
2021/12/07 04:19:28;;;;;;;17.23;2.70;;;;;;;3.91;100.00;100081.94;5056290;28;20053;-52
2021/12/07 04:21:57;;;;;;;14.68;2.53;;;;;;;4.00;100.00;100078.06;5056368;28;20057;-52
2021/12/07 04:24:27;;;;;;;16.67;2.75;;;;;;;4.02;100.00;100071.03;5055925;28;20432;-52
2021/12/07 04:26:56;;;;;;;17.25;2.65;;;;;;;4.06;100.00;100064.72;5056538;28;20057;-51
2021/12/07 04:29:24;;;;;;;8.10;2.63;;;;;;;4.06;100.00;100049.81;5056429;28;20064;-52
2021/12/07 04:31:52;;;;;;;11.07;2.33;;;;;;;4.11;100.00;100046.16;5056402;28;20409;-52
2021/12/07 04:34:20;;;;;;;14.23;2.72;;;;;;;4.10;100.00;100034.78;5056651;28;20126;-52
2021/12/07 04:36:49;;;;;;;18.90;3.15;;;;;;;4.02;100.00;100015.91;5056265;28;20057;-51
2021/12/07 04:39:19;;;;;;;17.33;2.88;;;;;;;4.00;100.00;99996.72;5055937;28;20528;-52
2021/12/07 04:41:49;;;;;;;16.75;2.88;;;;;;;4.00;100.00;99984.47;5056177;28;20056;-51
2021/12/07 04:44:17;;;;;;;15.63;3.05;;;;;;;4.01;100.00;99982.69;5056688;28;20062;-52
2021/12/07 04:46:52;;;;;;;16.90;2.53;;;;;;;4.07;100.00;99972.78;5056652;28;20084;-51
2021/12/07 04:57:43;;;;;;;14.70;2.33;;;;;;;4.15;100.00;99955.81;5056811;28;20053;-52
2021/12/07 05:00:14;;;;;;;20.83;2.88;;;;;;;4.22;100.00;99944.13;5055937;28;20094;-52
2021/12/07 05:02:46;;;;;;;13.73;2.55;;;;;;;4.17;100.00;99930.34;5055147;28;20053;-52
2021/12/07 05:05:16;;;;;;;15.85;2.58;;;;;;;4.25;100.00;99922.97;5055781;28;20425;-50
2021/12/07 05:07:49;;;;;;;26.15;2.80;;;;;;;4.07;100.00;99901.91;5056284;28;20120;-52
2021/12/07 05:10:27;;;;;;;17.42;3.35;;;;;;;4.18;100.00;99926.81;5055970;28;20060;-50
2021/12/07 05:13:20;;;;;;;16.98;2.42;;;;;;;4.14;100.00;99920.00;5055038;28;20057;-52
2021/12/07 05:19:14;;;;;;;20.63;3.03;;;;;;;4.07;100.00;99894.03;4981370;28;20066;-53
2021/12/07 05:24:28;;;;;;;11.68;1.90;;;;;;;4.23;100.00;99867.91;5055840;28;20057;-51
2021/12/07 05:38:02;;;;;;;15.48;3.13;;;;;;;4.55;100.00;99820.06;5055935;28;20140;-52
2021/12/07 05:40:34;;;;;;;21.38;3.03;;;;;;;4.57;100.00;99826.09;5054739;28;20063;-52
2021/12/07 05:43:05;;;;;;;18.77;2.72;;;;;;;4.52;100.00;99814.97;5055247;28;20090;-52
2021/12/07 05:45:36;;;;;;;17.65;3.50;;;;;;;4.64;100.00;99806.50;5054430;28;20063;-51
2021/12/07 05:48:06;;;;;;;22.40;2.53;;;;;;;4.69;100.00;99793.13;5054411;28;20069;-52
2021/12/07 05:50:37;;;;;;;23.60;2.90;;;;;;;4.67;100.00;99779.22;5055719;28;20061;-52
2021/12/07 05:53:06;;;;;;;18.23;2.95;;;;;;;4.61;100.00;99762.00;5054321;28;20057;-50
2021/12/07 05:55:34;;;;;;;25.55;2.90;;;;;;;4.75;100.00;99756.03;5055109;28;20060;-50
2021/12/07 05:58:07;;;;;;;14.35;2.90;;;;;;;4.93;100.00;99759.53;5054376;28;20064;-50
2021/12/07 06:00:39;;;;;;;23.50;2.83;;;;;;;5.19;100.00;99752.91;5055333;28;20060;-52
2021/12/07 06:03:08;;;;;;;15.93;2.33;;;;;;;5.27;100.00;99740.22;5054678;28;20142;-52
2021/12/07 06:05:41;;;;;;;10.82;2.33;;;;;;;5.46;100.00;99729.56;5054319;28;20554;-51
2021/12/07 06:08:10;;;;;;;16.33;1.65;;;;;;;5.69;100.00;99722.25;5054024;28;20064;-52
2021/12/07 06:10:38;;;;;;;24.80;3.92;;;;;;;5.74;100.00;99721.03;5054515;28;20060;-52
2021/12/07 06:13:08;;;;;;;26.17;2.35;;;;;;;5.89;100.00;99708.84;5055077;28;20072;-52
2021/12/07 06:15:38;;;;;;;21.17;2.08;;;;;;;5.95;100.00;99700.59;5054450;28;20057;-51
2021/12/07 06:18:07;;;;;;;21.05;3.55;;;;;;;5.97;100.00;99689.16;5054204;28;20132;-51
2021/12/07 06:20:35;;;;;;;20.60;3.10;;;;;;;6.03;100.00;99680.91;5054321;28;20052;-50
2021/12/07 06:23:13;;;;;;;23.00;3.22;;;;;;;6.05;100.00;99669.38;5054000;28;20057;-51
2021/12/07 06:25:41;;;;;;;29.15;2.72;;;;;;;6.03;100.00;99657.22;5053964;28;20052;-52
2021/12/07 06:28:11;;;;;;;19.35;2.72;;;;;;;6.08;100.00;99647.28;5055045;28;20052;-52
2021/12/07 06:30:42;;;;;;;23.90;2.75;;;;;;;6.10;100.00;99642.75;5053314;28;20118;-50
2021/12/07 06:33:10;;;;;;;18.98;2.80;;;;;;;6.11;100.00;99626.03;5053931;28;20512;-50
2021/12/07 06:35:39;;;;;;;20.15;2.55;;;;;;;6.07;100.00;99619.25;5054196;28;20052;-52
2021/12/07 06:38:07;;;;;;;28.92;3.97;;;;;;;6.04;100.00;99614.19;5053820;28;20513;-51
2021/12/07 06:40:35;;;;;;;25.00;4.13;;;;;;;6.11;100.00;99610.25;5053875;28;20057;-52
2021/12/07 06:43:04;;;;;;;24.98;3.58;;;;;;;6.19;100.00;99618.56;5053726;28;20060;-52
2021/12/07 06:45:34;;;;;;;19.55;3.10;;;;;;;6.26;100.00;99613.78;5053700;28;20052;-52
2021/12/07 06:48:02;;;;;;;20.10;2.80;;;;;;;6.26;100.00;99604.06;5054302;28;20057;-51
2021/12/07 06:50:30;;;;;;;20.63;3.70;;;;;;;6.22;100.00;99613.09;5054823;28;20412;-52
2021/12/07 06:52:58;;;;;;;22.35;3.63;;;;;;;6.26;100.00;99588.28;5053588;28;20350;-51
2021/12/07 06:55:27;;;;;;;18.80;3.35;;;;;;;6.33;100.00;99568.53;5054253;28;20087;-52
2021/12/07 06:57:55;;;;;;;18.85;3.20;;;;;;;6.35;100.00;99564.97;5053652;28;20057;-52
2021/12/07 07:00:23;;;;;;;25.10;3.40;;;;;;;6.34;100.00;99545.69;5054454;28;20088;-52
2021/12/07 07:02:53;;;;;;;27.85;4.22;;;;;;;6.35;100.00;99544.72;5053572;28;20535;-52
2021/12/07 07:05:22;;;;;;;30.55;3.75;;;;;;;6.37;100.00;99531.47;5053327;28;20586;-52
2021/12/07 07:07:50;;;;;;;29.27;3.72;;;;;;;6.45;100.00;99539.75;5053784;28;20681;-52
2021/12/07 07:10:19;;;;;;;15.50;4.22;;;;;;;6.48;100.00;99523.78;5053896;28;20053;-52
2021/12/07 07:12:48;;;;;;;24.77;3.05;;;;;;;6.53;100.00;99510.34;5053635;28;20056;-52
2021/12/07 07:15:17;;;;;;;23.85;4.15;;;;;;;6.59;100.00;99518.72;5053601;28;20504;-52
2021/12/07 07:17:45;;;;;;;33.83;5.10;;;;;;;6.61;100.00;99511.53;5053963;28;20440;-50
2021/12/07 07:20:17;;;;;;;34.78;4.78;;;;;;;6.68;100.00;99494.41;5054127;28;20056;-50
2021/12/07 07:22:45;;;;;;;27.55;4.72;;;;;;;6.75;100.00;99499.31;5053302;28;20496;-51
2021/12/07 07:25:14;;;;;;;21.17;3.65;;;;;;;6.81;100.00;99501.56;5053169;28;20053;-50
2021/12/07 07:27:43;;;;;;;35.33;5.63;;;;;;;6.85;100.00;99489.88;5053508;28;20086;-52
2021/12/07 07:30:13;;;;;;;26.90;3.70;;;;;;;6.91;100.00;99484.22;5053672;28;20060;-50
2021/12/07 07:32:41;;;;;;;32.92;4.75;;;;;;;6.94;100.00;99468.19;5050331;28;20088;-52
2021/12/07 07:35:11;;;;;;;16.85;3.55;;;;;;;6.94;100.00;99468.19;5048725;28;20061;-52
2021/12/07 07:37:41;;;;;;;32.13;4.53;;;;;;;7.01;100.00;99463.38;5044431;28;20521;-52
2021/12/07 07:40:12;;;;;;;24.38;4.15;;;;;;;7.10;100.00;99467.25;5033555;28;20504;-52
2021/12/07 07:42:41;;;;;;;29.90;3.67;;;;;;;7.13;100.00;99452.06;5037054;28;20067;-52
2021/12/07 07:45:10;;;;;;;29.40;4.38;;;;;;;7.09;100.00;99433.88;5041679;28;20067;-50
2021/12/07 07:47:39;;;;;;;25.08;4.43;;;;;;;7.13;100.00;99425.69;5047663;28;20053;-51
2021/12/07 07:50:09;;;;;;;30.77;3.60;;;;;;;7.10;100.00;99435.59;5045583;28;20057;-52
2021/12/07 07:52:38;;;;;;;26.55;3.75;;;;;;;7.09;100.00;99394.31;5039821;28;20057;-51
2021/12/07 07:55:09;;;;;;;34.60;5.22;;;;;;;7.14;100.00;99382.53;5037353;28;20057;-50
2021/12/07 07:57:38;;;;;;;28.60;4.47;;;;;;;7.16;100.00;99403.53;5039095;28;20394;-53
2021/12/07 08:00:09;;;;;;;38.97;4.75;;;;;;;7.20;100.00;99373.38;5056633;28;20061;-49
2021/12/07 08:02:37;;;;;;;31.30;4.20;;;;;;;7.18;100.00;99356.81;5056064;28;20394;-51
2021/12/07 08:05:06;;;;;;;33.38;5.20;;;;;;;7.22;100.00;99355.66;5048346;28;20107;-51
2021/12/07 08:07:35;;;;;;;25.70;3.60;;;;;;;7.18;100.00;99331.28;5036976;28;20527;-52
2021/12/07 08:10:04;;;;;;;26.85;4.25;;;;;;;7.20;100.00;99331.19;5042691;28;20063;-51
2021/12/07 08:12:34;;;;;;;22.48;4.25;;;;;;;7.22;100.00;99316.94;5041187;28;20053;-51
2021/12/07 08:15:03;;;;;;;26.58;4.82;;;;;;;7.24;100.00;99298.38;5053274;28;20136;-53
2021/12/07 08:17:31;;;;;;;26.15;6.15;;;;;;;7.27;100.00;99300.78;5054320;28;20063;-49
2021/12/07 08:19:59;;;;;;;26.30;4.13;;;;;;;7.29;100.00;99290.97;5056538;28;20060;-50
2021/12/07 08:22:29;;;;;;;29.25;4.20;;;;;;;7.36;100.00;99292.28;5057773;28;20065;-49
2021/12/07 08:24:58;;;;;;;33.65;4.68;;;;;;;7.48;100.00;99276.53;5055927;28;20496;-52
2021/12/07 08:27:27;;;;;;;21.92;3.40;;;;;;;7.57;100.00;99276.75;5056153;28;20056;-50
2021/12/07 08:29:58;;;;;;;27.63;4.30;;;;;;;7.59;100.00;99258.16;5055875;28;20100;-50
2021/12/07 08:32:26;;;;;;;31.27;3.55;;;;;;;7.66;100.00;99222.47;5056368;28;20053;-51
2021/12/07 08:34:55;;;;;;;25.38;3.47;;;;;;;7.75;100.00;99221.84;5056900;28;20067;-51
2021/12/07 08:37:23;;;;;;;32.83;4.28;;;;;;;7.85;100.00;99210.59;5055945;28;20136;-50
2021/12/07 08:39:51;;;;;;;33.53;4.80;;;;;;;7.91;100.00;99195.16;5055781;28;20061;-52
2021/12/07 08:42:20;;;;;;;27.58;5.15;;;;;;;7.96;100.00;99176.38;5056724;28;20057;-52
2021/12/07 08:44:48;;;;;;;17.95;3.15;;;;;;;8.08;100.00;99148.22;5056170;28;20232;-53
2021/12/07 08:47:17;;;;;;;29.08;3.60;;;;;;;8.26;100.00;99156.59;5055756;28;20064;-52
2021/12/07 08:50:09;;;;;;;27.95;3.55;;;;;;;8.23;100.00;99125.94;5056282;28;20045;-51
2021/12/07 08:52:37;;;;;;;26.73;3.80;;;;;;;8.45;100.00;99119.94;5055456;28;20064;-50
2021/12/07 09:00:39;;;;;;;30.30;4.00;;;;;;;8.61;100.00;99087.03;5055643;28;20068;-52
2021/12/07 09:03:08;;;;;;;31.13;5.13;;;;;;;8.65;100.00;99073.47;5055749;28;20080;-50
2021/12/07 09:05:38;;;;;;;32.28;6.90;;;;;;;8.82;100.00;99064.25;5055900;28;20404;-53
2021/12/07 09:08:06;;;;;;;35.15;5.80;;;;;;;8.84;100.00;99058.84;5056073;28;20057;-50
2021/12/07 09:10:34;;;;;;;42.40;12.38;;;;;;;8.85;100.00;99055.25;5055591;28;20087;-52
2021/12/07 09:13:03;;;;;;;27.17;5.25;;;;;;;8.89;100.00;99033.75;5055205;28;20057;-52
2021/12/07 09:15:31;;;;;;;31.35;4.90;;;;;;;8.93;100.00;99045.75;5055876;28;20067;-52
2021/12/07 09:17:59;;;;;;;26.27;4.28;;;;;;;9.01;100.00;99008.13;5055471;28;20053;-51
2021/12/07 09:20:29;;;;;;;32.35;4.65;;;;;;;8.99;100.00;99010.03;5055501;28;20069;-50
2021/12/07 09:22:58;;;;;;;38.80;5.85;;;;;;;9.01;100.00;99015.19;5054885;28;20092;-51
2021/12/07 09:25:26;;;;;;;30.13;4.32;;;;;;;8.93;100.00;98976.97;5055930;28;20052;-51
2021/12/07 09:27:54;;;;;;;30.50;3.55;;;;;;;8.88;100.00;98968.56;5054975;28;20067;-52
2021/12/07 09:30:23;;;;;;;39.95;6.72;;;;;;;8.91;100.00;98954.28;5055300;28;20057;-53
2021/12/07 09:32:51;;;;;;;24.27;5.15;;;;;;;8.99;100.00;98948.38;5055235;28;20057;-52
2021/12/07 09:35:21;;;;;;;24.40;3.83;;;;;;;9.01;100.00;98930.56;5054638;28;20060;-52
2021/12/07 09:37:53;;;;;;;29.67;5.22;;;;;;;9.02;100.00;98916.38;5055191;28;20052;-50
2021/12/07 09:40:23;;;;;;;35.20;4.13;;;;;;;8.98;100.00;98925.50;5055893;28;20063;-51
2021/12/07 09:42:52;;;;;;;24.58;3.25;;;;;;;8.86;100.00;98916.75;5054499;28;20052;-50
2021/12/07 09:45:20;;;;;;;21.42;3.03;;;;;;;8.80;100.00;98902.25;5054403;28;20057;-50
2021/12/07 09:47:49;;;;;;;21.67;3.45;;;;;;;8.77;100.00;98899.84;5054981;28;20135;-50
2021/12/07 09:50:21;;;;;;;20.35;3.50;;;;;;;8.63;100.00;98874.53;5055381;28;20436;-50
2021/12/07 09:52:51;;;;;;;33.80;3.60;;;;;;;8.67;100.00;98856.59;5055738;28;20052;-52
2021/12/07 09:55:19;;;;;;;22.02;3.03;;;;;;;8.61;100.00;98854.44;5055119;28;20053;-50
2021/12/07 09:57:48;;;;;;;23.65;4.82;;;;;;;8.60;100.00;98852.78;5055569;28;20053;-50
2021/12/07 10:00:20;;;;;;;19.73;3.28;;;;;;;8.55;100.00;98835.47;5054749;28;20052;-49
2021/12/07 10:02:49;;;;;;;25.33;4.07;;;;;;;8.55;100.00;98814.34;5054133;28;20096;-51
2021/12/07 10:05:19;;;;;;;23.67;3.63;;;;;;;8.54;100.00;98806.56;5053970;28;20138;-52
2021/12/07 10:07:48;;;;;;;26.38;4.22;;;;;;;8.55;100.00;98785.25;5054643;28;20064;-49
2021/12/07 10:10:23;;;;;;;27.90;4.60;;;;;;;8.55;100.00;98771.22;5054569;28;20053;-52
2021/12/07 10:12:51;;;;;;;26.63;3.40;;;;;;;8.57;100.00;98779.03;5054049;28;20056;-51
2021/12/07 10:15:20;;;;;;;25.38;4.25;;;;;;;8.55;100.00;98740.34;5053964;28;20061;-52
2021/12/07 10:18:04;;;;;;;37.33;4.82;;;;;;;8.52;100.00;98739.75;5054723;28;20053;-52
2021/12/07 10:20:40;;;;;;;25.67;2.97;;;;;;;8.54;100.00;98728.09;5054530;28;20061;-52
2021/12/07 10:23:28;;;;;;;16.40;2.47;;;;;;;8.61;100.00;98732.88;5054371;28;20075;-52
2021/12/07 10:26:04;;;;;;;18.48;3.53;;;;;;;8.69;100.00;98735.72;5053709;28;20053;-52
2021/12/07 10:28:36;;;;;;;23.92;4.18;;;;;;;8.72;100.00;98730.19;5054971;28;20057;-52
2021/12/07 10:31:18;;;;;;;26.52;3.13;;;;;;;8.74;100.00;98712.38;5054926;28;20064;-50
2021/12/07 10:33:48;;;;;;;25.00;4.50;;;;;;;8.72;100.00;98688.75;5053726;28;20103;-50
2021/12/07 10:36:20;;;;;;;17.42;2.78;;;;;;;8.79;100.00;98686.41;5053715;28;20060;-52
2021/12/07 10:38:51;;;;;;;19.23;3.75;;;;;;;8.84;100.00;98681.59;5054062;28;20057;-49
2021/12/07 10:41:24;;;;;;;24.88;3.03;;;;;;;8.93;100.00;98688.75;5054017;28;20064;-51
2021/12/07 10:44:07;;;;;;;14.63;2.35;;;;;;;9.06;100.00;98680.63;5053597;28;20060;-52
2021/12/07 10:46:41;;;;;;;21.63;2.72;;;;;;;9.14;100.00;98672.00;5053757;28;20060;-52
2021/12/07 10:49:33;;;;;;;18.77;2.50;;;;;;;9.17;100.00;98661.16;5053611;28;20053;-51
2021/12/07 10:52:16;;;;;;;19.40;2.63;;;;;;;9.14;100.00;98665.88;5054843;28;20057;-51
2021/12/07 10:54:48;;;;;;;9.88;1.80;;;;;;;9.11;100.00;98659.03;5054363;28;20558;-52
2021/12/07 10:57:18;;;;;;;;;;;;;;;9.10;100.00;98638.88;5054311;28;20088;-52
2021/12/07 10:59:53;;;;;;;12.10;2.20;;;;;;;9.03;100.00;98632.44;5053746;28;19927;-51
2021/12/07 11:02:22;;;;;;;16.02;3.30;;;;;;;8.97;100.00;98632.94;5053711;28;20053;-52
2021/12/07 11:04:52;;;;;;;11.38;2.17;;;;;;;8.95;100.00;98619.84;5053374;28;20059;-52
2021/12/07 11:07:22;;;;;;;9.45;1.98;;;;;;;8.88;100.00;98571.94;5053882;28;20053;-52
2021/12/07 11:09:59;;;;;;;17.20;2.08;;;;;;;8.84;100.00;98575.84;5053664;28;20060;-51
2021/12/07 11:12:36;;;;;;;13.25;2.22;;;;;;;8.82;100.00;98564.53;5053289;28;20057;-51
2021/12/07 11:15:12;;;;;;;14.05;2.42;;;;;;;8.82;100.00;98546.03;5055177;28;20060;-52
2021/12/07 11:17:40;;;;;;;12.50;1.85;;;;;;;8.87;100.00;98550.94;5057492;28;20543;-52
2021/12/07 11:20:10;;;;;;;23.67;1.95;;;;;;;8.90;100.00;98513.66;5058627;28;20061;-52
2021/12/07 11:22:42;;;;;;;17.88;1.67;;;;;;;8.96;100.00;98509.63;5037676;28;20441;-52
2021/12/07 11:25:14;;;;;;;19.30;2.40;;;;;;;8.96;100.00;98510.47;5037488;28;20058;-53
2021/12/07 11:30:34;;;;;;;8.57;1.43;;;;;;;9.13;100.00;98448.16;5037124;28;20067;-53
2021/12/07 11:33:02;;;;;;;13.63;2.58;;;;;;;9.20;100.00;98467.81;5037297;28;20057;-54
2021/12/07 11:35:34;;;;;;;13.35;1.63;;;;;;;9.34;100.00;98463.09;5037670;28;20053;-51
2021/12/07 11:38:05;;;;;;;10.85;1.70;;;;;;;9.31;100.00;98445.66;5038389;28;20057;-51
2021/12/07 11:40:35;;;;;;;6.85;1.70;;;;;;;9.24;100.00;98434.78;5037725;28;20058;-52
2021/12/07 11:43:16;;;;;;;12.85;2.17;;;;;;;9.20;100.00;98457.22;5037194;28;20053;-51
2021/12/07 11:45:45;;;;;;;10.48;1.42;;;;;;;9.17;100.00;98470.72;5036838;28;20513;-51
2021/12/07 11:48:16;;;;;;;10.90;1.80;;;;;;;9.15;100.00;98467.38;5036678;28;20136;-51
2021/12/07 11:50:49;;;;;;;14.63;1.65;;;;;;;9.08;100.00;98467.09;5037513;28;20057;-52
2021/12/07 11:53:19;;;;;;;5.65;1.52;;;;;;;9.13;100.00;98437.59;5037565;28;20057;-52
2021/12/07 11:55:50;;;;;;;15.23;1.83;;;;;;;9.19;100.00;98399.97;5037768;28;20084;-51
2021/12/07 11:58:19;;;;;;;7.75;1.30;;;;;;;9.16;100.00;98404.72;5037138;28;20068;-52
2021/12/07 12:00:50;;;;;;;9.70;1.25;;;;;;;9.19;100.00;98399.16;5037346;28;20072;-52
2021/12/07 12:03:22;;;;;;;10.02;1.75;;;;;;;9.25;100.00;98404.72;5036512;28;20057;-52
2021/12/07 12:05:51;;;;;;;6.82;1.48;;;;;;;9.21;100.00;98392.78;5036463;28;20509;-51
2021/12/07 12:08:21;;;;;;;9.85;1.52;;;;;;;9.21;100.00;98376.91;5037647;28;20057;-52
2021/12/07 12:11:00;;;;;;;6.22;1.52;;;;;;;9.26;100.00;98356.16;5036911;28;20064;-52
2021/12/07 12:13:40;;;;;;;5.18;1.40;;;;;;;9.24;100.00;98391.63;5036636;28;20053;-53
2021/12/07 12:16:14;;;;;;;5.95;1.30;;;;;;;9.28;100.00;98356.00;5036272;28;20057;-52
2021/12/07 12:18:50;;;;;;;5.00;1.02;;;;;;;9.30;100.00;98354.88;5036257;28;20580;-52
2021/12/07 12:21:26;;;;;;;3.25;1.08;;;;;;;9.28;100.00;98356.84;5045951;28;20412;-52
2021/12/07 12:24:07;;;;;;;7.45;1.23;;;;;;;9.35;100.00;98361.59;5056726;28;20539;-52
2021/12/07 12:26:36;;;;;;;5.63;0.88;;;;;;;9.39;100.00;98337.31;5055376;28;20071;-52
2021/12/07 12:29:19;;;;;;;3.58;0.90;;;;;;;9.41;100.00;98318.66;5055979;28;20057;-52
2021/12/07 12:31:51;;;;;;;3.08;0.88;;;;;;;9.42;100.00;98330.94;5055874;28;20497;-52
2021/12/07 12:34:22;;;;;;;2.53;1.00;;;;;;;9.50;100.00;98349.59;5056305;28;20512;-51
2021/12/07 12:36:59;;;;;;;5.53;1.02;;;;;;;9.43;100.00;98332.59;5057225;28;20409;-51
2021/12/07 12:39:54;;;;;;;2.05;1.35;;;;;;;9.41;100.00;98308.91;5055760;28;20063;-52
2021/12/07 12:42:30;;;;;;;1.60;0.70;;;;;;;9.44;100.00;98307.81;5054062;28;20072;-51
2021/12/07 12:45:10;;;;;;;2.00;0.80;;;;;;;9.54;100.00;98281.31;5056192;28;20053;-52
2021/12/07 12:47:40;;;;;;;2.85;0.82;;;;;;;9.64;100.00;98309.44;5056309;28;20053;-53
2021/12/07 12:50:17;;;;;;;2.25;0.90;;;;;;;9.59;100.00;98303.72;5056059;28;20068;-54
2021/12/07 12:52:48;;;;;;;3.53;1.10;;;;;;;9.61;100.00;98304.41;5056384;28;20061;-52
2021/12/07 12:55:47;;;;;;;5.35;0.90;;;;;;;9.72;100.00;98284.06;5055428;28;20543;-51
2021/12/07 12:58:22;;;;;;;2.05;0.55;;;;;;;9.71;100.00;98330.03;4974478;28;20062;-51
2021/12/07 13:01:09;;;;;;;5.35;1.92;;;;;;;9.70;100.00;98376.00;5041741;28;20158;-52
2021/12/07 13:03:59;;;;;;;5.10;1.25;;;;;;;9.60;100.00;98387.47;5056830;28;20131;-51